sensor_id;sensor_type;location;lat;lon;timestamp;pressure;altitude;pressure_sealevel;temperature;humidity
77572;BME280;67214;47.454;18.966;2023-03-24T00:00:31;100001.08;;;8.51;69.82
77572;BME280;67214;47.454;18.966;2023-03-24T00:02:59;99999.72;;;8.45;70.14
77572;BME280;67214;47.454;18.966;2023-03-24T00:05:27;100000.19;;;8.39;70.31
77572;BME280;67214;47.454;18.966;2023-03-24T00:07:56;100010.34;;;8.32;70.54
77572;BME280;67214;47.454;18.966;2023-03-24T00:10:25;100004.75;;;8.24;70.58
77572;BME280;67214;47.454;18.966;2023-03-24T00:12:54;99995.74;;;8.21;70.54
77572;BME280;67214;47.454;18.966;2023-03-24T00:15:24;100000.52;;;8.16;70.76
77572;BME280;67214;47.454;18.966;2023-03-24T00:17:52;99994.14;;;8.13;70.88
77572;BME280;67214;47.454;18.966;2023-03-24T00:20:22;99990.03;;;8.09;71.01
77572;BME280;67214;47.454;18.966;2023-03-24T00:22:54;100002.02;;;8.08;71.23
77572;BME280;67214;47.454;18.966;2023-03-24T00:25:27;100003.20;;;8.04;71.24
77572;BME280;67214;47.454;18.966;2023-03-24T00:27:57;99999.98;;;8.06;71.12
77572;BME280;67214;47.454;18.966;2023-03-24T00:30:25;99996.39;;;8.07;71.09
77572;BME280;67214;47.454;18.966;2023-03-24T00:32:52;99989.75;;;8.01;70.99
77572;BME280;67214;47.454;18.966;2023-03-24T00:35:20;99991.77;;;7.98;71.02
77572;BME280;67214;47.454;18.966;2023-03-24T00:37:48;99991.17;;;8.00;70.84
77572;BME280;67214;47.454;18.966;2023-03-24T00:40:18;99983.94;;;7.90;70.83
77572;BME280;67214;47.454;18.966;2023-03-24T00:42:47;99975.12;;;7.84;71.03
77572;BME280;67214;47.454;18.966;2023-03-24T00:45:18;99982.53;;;7.79;71.37
77572;BME280;67214;47.454;18.966;2023-03-24T00:47:46;99975.59;;;7.78;71.24
77572;BME280;67214;47.454;18.966;2023-03-24T00:50:17;99973.76;;;7.79;71.20
77572;BME280;67214;47.454;18.966;2023-03-24T00:52:46;99963.20;;;7.79;71.08
77572;BME280;67214;47.454;18.966;2023-03-24T00:55:14;99957.59;;;7.83;70.82
77572;BME280;67214;47.454;18.966;2023-03-24T00:57:44;99959.52;;;7.81;70.54
77572;BME280;67214;47.454;18.966;2023-03-24T01:00:24;99959.05;;;7.82;70.65
77572;BME280;67214;47.454;18.966;2023-03-24T01:02:54;99954.85;;;7.85;70.03
77572;BME280;67214;47.454;18.966;2023-03-24T01:05:25;99952.40;;;7.76;70.34
77572;BME280;67214;47.454;18.966;2023-03-24T01:07:59;99944.56;;;7.69;70.73
77572;BME280;67214;47.454;18.966;2023-03-24T01:10:24;99936.64;;;7.69;70.96
77572;BME280;67214;47.454;18.966;2023-03-24T01:12:54;99944.61;;;7.62;70.83
77572;BME280;67214;47.454;18.966;2023-03-24T01:15:25;99938.00;;;7.57;71.18
77572;BME280;67214;47.454;18.966;2023-03-24T01:17:53;99932.72;;;7.57;70.97
77572;BME280;67214;47.454;18.966;2023-03-24T01:20:21;99928.92;;;7.66;70.94
77572;BME280;67214;47.454;18.966;2023-03-24T01:22:50;99924.67;;;7.58;70.71
77572;BME280;67214;47.454;18.966;2023-03-24T01:25:20;99920.95;;;7.55;70.86
77572;BME280;67214;47.454;18.966;2023-03-24T01:27:49;99925.42;;;7.60;70.60
77572;BME280;67214;47.454;18.966;2023-03-24T01:30:24;99927.15;;;7.48;70.96
77572;BME280;67214;47.454;18.966;2023-03-24T01:32:47;99927.70;;;7.41;71.10
77572;BME280;67214;47.454;18.966;2023-03-24T01:35:15;99921.15;;;7.34;71.40
77572;BME280;67214;47.454;18.966;2023-03-24T01:37:42;99921.00;;;7.30;71.73
77572;BME280;67214;47.454;18.966;2023-03-24T01:40:19;99920.81;;;7.33;71.49
77572;BME280;67214;47.454;18.966;2023-03-24T01:42:46;99912.84;;;7.27;71.65
77572;BME280;67214;47.454;18.966;2023-03-24T01:45:41;99914.86;;;7.24;71.75
77572;BME280;67214;47.454;18.966;2023-03-24T01:48:15;99911.31;;;7.18;71.99
77572;BME280;67214;47.454;18.966;2023-03-24T01:50:48;99912.14;;;7.13;72.44
77572;BME280;67214;47.454;18.966;2023-03-24T01:53:14;99915.97;;;7.14;72.36
77572;BME280;67214;47.454;18.966;2023-03-24T01:55:44;99906.34;;;7.08;72.42
77572;BME280;67214;47.454;18.966;2023-03-24T01:58:12;99912.94;;;7.08;72.44
77572;BME280;67214;47.454;18.966;2023-03-24T02:00:40;99897.48;;;7.09;72.56
77572;BME280;67214;47.454;18.966;2023-03-24T02:03:15;99905.25;;;7.05;72.75
77572;BME280;67214;47.454;18.966;2023-03-24T02:05:40;99909.36;;;7.09;72.65
77572;BME280;67214;47.454;18.966;2023-03-24T02:08:21;99897.27;;;7.12;72.55
77572;BME280;67214;47.454;18.966;2023-03-24T02:10:47;99900.47;;;7.10;72.64
77572;BME280;67214;47.454;18.966;2023-03-24T02:13:15;99894.70;;;7.05;72.70
77572;BME280;67214;47.454;18.966;2023-03-24T02:15:51;99902.70;;;7.03;72.81
77572;BME280;67214;47.454;18.966;2023-03-24T02:40:23;99897.50;;;6.83;72.75
77572;BME280;67214;47.454;18.966;2023-03-24T02:51:06;99895.28;;;6.77;72.89
77572;BME280;67214;47.454;18.966;2023-03-24T02:53:46;99893.48;;;6.78;72.85
77572;BME280;67214;47.454;18.966;2023-03-24T02:56:15;99886.75;;;6.74;72.87
77572;BME280;67214;47.454;18.966;2023-03-24T02:58:51;99882.55;;;6.71;73.10
77572;BME280;67214;47.454;18.966;2023-03-24T03:01:25;99883.64;;;6.74;73.50
77572;BME280;67214;47.454;18.966;2023-03-24T03:04:16;99884.11;;;6.74;73.42
77572;BME280;67214;47.454;18.966;2023-03-24T03:06:46;99884.48;;;6.75;73.20
77572;BME280;67214;47.454;18.966;2023-03-24T03:09:16;99884.95;;;6.74;73.43
77572;BME280;67214;47.454;18.966;2023-03-24T03:11:47;99875.73;;;6.74;73.16
77572;BME280;67214;47.454;18.966;2023-03-24T03:14:18;99866.14;;;6.73;73.36
77572;BME280;67214;47.454;18.966;2023-03-24T03:16:53;99870.56;;;6.73;73.41
77572;BME280;67214;47.454;18.966;2023-03-24T03:19:23;99872.88;;;6.65;73.56
77572;BME280;67214;47.454;18.966;2023-03-24T03:21:52;99863.84;;;6.56;74.16
77572;BME280;67214;47.454;18.966;2023-03-24T03:24:24;99875.16;;;6.51;74.58
77572;BME280;67214;47.454;18.966;2023-03-24T03:27:05;99864.66;;;6.57;74.31
77572;BME280;67214;47.454;18.966;2023-03-24T03:29:32;99862.25;;;6.66;73.98
77572;BME280;67214;47.454;18.966;2023-03-24T03:32:02;99853.81;;;6.61;74.16
77572;BME280;67214;47.454;18.966;2023-03-24T03:34:42;99858.92;;;6.57;74.20
77572;BME280;67214;47.454;18.966;2023-03-24T03:37:44;99869.11;;;6.56;74.05
77572;BME280;67214;47.454;18.966;2023-03-24T03:40:05;99867.42;;;6.55;74.21
77572;BME280;67214;47.454;18.966;2023-03-24T03:42:35;99875.95;;;6.59;74.19
77572;BME280;67214;47.454;18.966;2023-03-24T03:45:03;99879.15;;;6.57;74.03
77572;BME280;67214;47.454;18.966;2023-03-24T03:47:31;99868.42;;;6.60;73.84
77572;BME280;67214;47.454;18.966;2023-03-24T03:49:58;99866.95;;;6.56;73.91
77572;BME280;67214;47.454;18.966;2023-03-24T03:52:26;99864.84;;;6.48;74.02
77572;BME280;67214;47.454;18.966;2023-03-24T03:54:53;99854.34;;;6.41;74.23
77572;BME280;67214;47.454;18.966;2023-03-24T03:57:22;99865.34;;;6.40;74.40
77572;BME280;67214;47.454;18.966;2023-03-24T03:59:50;99867.88;;;6.42;74.20
77572;BME280;67214;47.454;18.966;2023-03-24T04:02:30;99861.86;;;6.40;74.21
77572;BME280;67214;47.454;18.966;2023-03-24T04:05:29;99860.55;;;6.40;74.20
77572;BME280;67214;47.454;18.966;2023-03-24T04:08:16;99843.70;;;6.30;74.55
77572;BME280;67214;47.454;18.966;2023-03-24T04:16:55;99842.91;;;6.22;74.82
77572;BME280;67214;47.454;18.966;2023-03-24T04:22:30;99851.95;;;6.18;75.04
77572;BME280;67214;47.454;18.966;2023-03-24T04:33:09;99850.50;;;5.94;75.71
77572;BME280;67214;47.454;18.966;2023-03-24T04:35:41;99857.42;;;5.95;75.84
77572;BME280;67214;47.454;18.966;2023-03-24T04:38:18;99852.66;;;5.95;76.17
77572;BME280;67214;47.454;18.966;2023-03-24T04:40:49;99844.30;;;6.08;75.48
77572;BME280;67214;47.454;18.966;2023-03-24T04:43:21;99851.98;;;5.98;75.71
77572;BME280;67214;47.454;18.966;2023-03-24T04:45:51;99851.39;;;6.00;75.68
77572;BME280;67214;47.454;18.966;2023-03-24T04:48:21;99859.12;;;5.96;75.69
77572;BME280;67214;47.454;18.966;2023-03-24T04:50:54;99862.77;;;6.01;75.67
77572;BME280;67214;47.454;18.966;2023-03-24T04:53:22;99852.49;;;6.03;75.44
77572;BME280;67214;47.454;18.966;2023-03-24T04:55:54;99853.77;;;5.98;75.63
77572;BME280;67214;47.454;18.966;2023-03-24T04:58:22;99848.37;;;5.99;75.58
77572;BME280;67214;47.454;18.966;2023-03-24T05:00:51;99852.31;;;6.06;75.69
77572;BME280;67214;47.454;18.966;2023-03-24T05:03:20;99855.03;;;6.05;75.61
77572;BME280;67214;47.454;18.966;2023-03-24T05:05:49;99855.88;;;6.05;75.53
77572;BME280;67214;47.454;18.966;2023-03-24T05:08:17;99864.72;;;6.04;75.48
77572;BME280;67214;47.454;18.966;2023-03-24T05:10:45;99863.87;;;6.04;75.61
77572;BME280;67214;47.454;18.966;2023-03-24T05:13:13;99862.16;;;6.10;75.78
77572;BME280;67214;47.454;18.966;2023-03-24T05:15:41;99867.80;;;6.24;75.34
77572;BME280;67214;47.454;18.966;2023-03-24T05:18:08;99875.86;;;6.28;75.49
77572;BME280;67214;47.454;18.966;2023-03-24T05:20:36;99870.03;;;6.30;75.39
77572;BME280;67214;47.454;18.966;2023-03-24T05:23:03;99874.61;;;6.33;75.33
77572;BME280;67214;47.454;18.966;2023-03-24T05:25:31;99874.72;;;6.44;75.28
77572;BME280;67214;47.454;18.966;2023-03-24T05:27:59;99872.75;;;6.48;75.10
77572;BME280;67214;47.454;18.966;2023-03-24T05:30:26;99873.54;;;6.56;74.89
77572;BME280;67214;47.454;18.966;2023-03-24T05:32:54;99874.33;;;6.63;74.54
77572;BME280;67214;47.454;18.966;2023-03-24T05:35:21;99876.52;;;6.69;74.20
77572;BME280;67214;47.454;18.966;2023-03-24T05:37:50;99886.91;;;6.78;73.93
77572;BME280;67214;47.454;18.966;2023-03-24T05:40:17;99885.42;;;6.86;73.92
77572;BME280;67214;47.454;18.966;2023-03-24T05:42:46;99877.45;;;6.93;74.44
77572;BME280;67214;47.454;18.966;2023-03-24T05:45:14;99885.77;;;7.13;73.64
77572;BME280;67214;47.454;18.966;2023-03-24T05:47:43;99867.02;;;7.23;73.22
77572;BME280;67214;47.454;18.966;2023-03-24T05:50:10;99883.73;;;7.29;72.93
77572;BME280;67214;47.454;18.966;2023-03-24T05:52:38;99887.28;;;7.40;72.48
77572;BME280;67214;47.454;18.966;2023-03-24T05:55:06;99879.42;;;7.52;71.81
77572;BME280;67214;47.454;18.966;2023-03-24T05:57:34;99885.94;;;7.59;71.12
77572;BME280;67214;47.454;18.966;2023-03-24T06:00:04;99880.52;;;7.73;71.06
77572;BME280;67214;47.454;18.966;2023-03-24T06:02:36;99879.27;;;7.89;71.04
77572;BME280;67214;47.454;18.966;2023-03-24T06:05:05;99882.46;;;8.11;70.67
77572;BME280;67214;47.454;18.966;2023-03-24T06:07:35;99879.70;;;8.31;70.86
77572;BME280;67214;47.454;18.966;2023-03-24T06:10:04;99878.90;;;8.47;70.24
77572;BME280;67214;47.454;18.966;2023-03-24T06:12:33;99871.13;;;8.68;70.07
77572;BME280;67214;47.454;18.966;2023-03-24T06:15:01;99875.83;;;8.92;69.85
77572;BME280;67214;47.454;18.966;2023-03-24T06:17:29;99873.66;;;9.25;68.64
77572;BME280;67214;47.454;18.966;2023-03-24T06:19:57;99882.16;;;9.45;68.34
77572;BME280;67214;47.454;18.966;2023-03-24T06:22:32;99883.20;;;9.65;67.28
77572;BME280;67214;47.454;18.966;2023-03-24T06:25:00;99879.66;;;9.81;66.83
77572;BME280;67214;47.454;18.966;2023-03-24T06:27:29;99875.64;;;9.92;66.84
77572;BME280;67214;47.454;18.966;2023-03-24T06:29:57;99877.02;;;10.07;66.33
77572;BME280;67214;47.454;18.966;2023-03-24T06:32:25;99878.08;;;10.21;65.70
77572;BME280;67214;47.454;18.966;2023-03-24T06:34:53;99881.39;;;10.35;65.16
77572;BME280;67214;47.454;18.966;2023-03-24T06:37:23;99881.73;;;10.56;64.91
77572;BME280;67214;47.454;18.966;2023-03-24T06:39:52;99871.95;;;10.78;63.17
77572;BME280;67214;47.454;18.966;2023-03-24T06:42:20;99875.77;;;11.00;62.22
77572;BME280;67214;47.454;18.966;2023-03-24T06:44:47;99871.01;;;11.18;61.17
77572;BME280;67214;47.454;18.966;2023-03-24T06:47:16;99867.48;;;11.33;60.08
77572;BME280;67214;47.454;18.966;2023-03-24T06:49:44;99866.15;;;11.48;59.21
77572;BME280;67214;47.454;18.966;2023-03-24T06:52:11;99848.06;;;11.67;59.23
77572;BME280;67214;47.454;18.966;2023-03-24T06:54:39;99860.06;;;11.86;59.04
77572;BME280;67214;47.454;18.966;2023-03-24T06:57:06;99855.95;;;12.07;57.90
77572;BME280;67214;47.454;18.966;2023-03-24T06:59:33;99852.23;;;12.23;58.16
77572;BME280;67214;47.454;18.966;2023-03-24T07:02:01;99843.23;;;12.43;57.24
77572;BME280;67214;47.454;18.966;2023-03-24T07:04:28;99844.38;;;12.64;56.40
77572;BME280;67214;47.454;18.966;2023-03-24T07:06:57;99837.28;;;12.78;55.83
77572;BME280;67214;47.454;18.966;2023-03-24T07:09:25;99846.59;;;12.92;54.92
77572;BME280;67214;47.454;18.966;2023-03-24T07:11:52;99843.61;;;13.14;54.26
77572;BME280;67214;47.454;18.966;2023-03-24T07:14:20;99845.62;;;13.30;53.89
77572;BME280;67214;47.454;18.966;2023-03-24T07:16:49;99840.44;;;13.42;54.38
77572;BME280;67214;47.454;18.966;2023-03-24T07:19:16;99836.44;;;13.56;53.68
77572;BME280;67214;47.454;18.966;2023-03-24T07:21:44;99830.97;;;13.75;54.52
77572;BME280;67214;47.454;18.966;2023-03-24T07:24:13;99834.13;;;13.74;53.17
77572;BME280;67214;47.454;18.966;2023-03-24T07:26:40;99838.33;;;13.77;53.17
77572;BME280;67214;47.454;18.966;2023-03-24T07:29:08;99830.45;;;13.89;53.67
77572;BME280;67214;47.454;18.966;2023-03-24T07:31:36;99827.89;;;14.01;53.35
77572;BME280;67214;47.454;18.966;2023-03-24T07:34:05;99828.87;;;14.18;52.77
77572;BME280;67214;47.454;18.966;2023-03-24T07:36:32;99828.13;;;14.29;52.32
77572;BME280;67214;47.454;18.966;2023-03-24T07:39:00;99824.36;;;14.36;50.83
77572;BME280;67214;47.454;18.966;2023-03-24T07:41:29;99821.42;;;14.47;51.90
77572;BME280;67214;47.454;18.966;2023-03-24T07:43:57;99823.34;;;14.55;51.65
77572;BME280;67214;47.454;18.966;2023-03-24T07:46:25;99825.04;;;14.64;50.70
77572;BME280;67214;47.454;18.966;2023-03-24T07:48:52;99823.46;;;14.75;51.69
77572;BME280;67214;47.454;18.966;2023-03-24T07:51:20;99833.66;;;14.83;50.75
77572;BME280;67214;47.454;18.966;2023-03-24T07:53:47;99836.10;;;14.99;49.81
77572;BME280;67214;47.454;18.966;2023-03-24T07:56:15;99827.92;;;15.04;50.00
77572;BME280;67214;47.454;18.966;2023-03-24T07:58:42;99830.66;;;15.20;49.63
77572;BME280;67214;47.454;18.966;2023-03-24T08:01:10;99827.05;;;15.33;49.54
77572;BME280;67214;47.454;18.966;2023-03-24T08:03:38;99827.91;;;15.38;49.09
77572;BME280;67214;47.454;18.966;2023-03-24T08:06:08;99838.27;;;15.45;49.88
77572;BME280;67214;47.454;18.966;2023-03-24T08:08:36;99827.35;;;15.64;47.29
77572;BME280;67214;47.454;18.966;2023-03-24T08:11:04;99823.86;;;15.76;47.78
77572;BME280;67214;47.454;18.966;2023-03-24T08:13:32;99827.84;;;15.64;47.33
77572;BME280;67214;47.454;18.966;2023-03-24T08:15:59;99814.00;;;15.72;49.82
77572;BME280;67214;47.454;18.966;2023-03-24T08:18:27;99806.30;;;15.86;49.03
77572;BME280;67214;47.454;18.966;2023-03-24T08:20:56;99800.47;;;16.06;48.90
77572;BME280;67214;47.454;18.966;2023-03-24T08:23:25;99801.14;;;16.20;47.88
77572;BME280;67214;47.454;18.966;2023-03-24T08:25:52;99796.97;;;16.26;47.97
77572;BME280;67214;47.454;18.966;2023-03-24T08:28:20;99798.95;;;16.36;46.87
77572;BME280;67214;47.454;18.966;2023-03-24T08:30:47;99795.92;;;16.43;46.82
77572;BME280;67214;47.454;18.966;2023-03-24T08:33:15;99784.06;;;16.62;47.28
77572;BME280;67214;47.454;18.966;2023-03-24T08:35:43;99779.80;;;16.80;46.25
77572;BME280;67214;47.454;18.966;2023-03-24T08:38:12;99774.59;;;16.90;46.33
77572;BME280;67214;47.454;18.966;2023-03-24T08:40:41;99781.19;;;17.14;44.76
77572;BME280;67214;47.454;18.966;2023-03-24T08:43:12;99774.38;;;17.35;43.90
77572;BME280;67214;47.454;18.966;2023-03-24T08:45:40;99771.24;;;17.58;44.54
77572;BME280;67214;47.454;18.966;2023-03-24T08:48:09;99764.89;;;17.51;43.57
77572;BME280;67214;47.454;18.966;2023-03-24T08:50:39;99771.36;;;17.34;43.98
77572;BME280;67214;47.454;18.966;2023-03-24T08:53:07;99761.19;;;17.25;44.52
77572;BME280;67214;47.454;18.966;2023-03-24T08:55:36;99767.66;;;17.00;44.53
77572;BME280;67214;47.454;18.966;2023-03-24T08:58:06;99767.30;;;17.11;46.17
77572;BME280;67214;47.454;18.966;2023-03-24T09:00:34;99760.37;;;17.20;45.79
77572;BME280;67214;47.454;18.966;2023-03-24T09:03:01;99770.38;;;17.31;44.33
77572;BME280;67214;47.454;18.966;2023-03-24T09:05:28;99771.67;;;17.04;45.18
77572;BME280;67214;47.454;18.966;2023-03-24T09:07:56;99761.73;;;17.47;44.33
77572;BME280;67214;47.454;18.966;2023-03-24T09:10:25;99765.04;;;17.57;43.65
77572;BME280;67214;47.454;18.966;2023-03-24T09:12:53;99760.77;;;17.90;44.49
77572;BME280;67214;47.454;18.966;2023-03-24T09:15:20;99768.55;;;18.03;43.95
77572;BME280;67214;47.454;18.966;2023-03-24T09:17:48;99765.00;;;17.88;43.68
77572;BME280;67214;47.454;18.966;2023-03-24T09:20:16;99761.64;;;17.86;43.67
77572;BME280;67214;47.454;18.966;2023-03-24T09:22:45;99761.73;;;17.74;44.02
77572;BME280;67214;47.454;18.966;2023-03-24T09:25:15;99750.51;;;17.75;44.95
77572;BME280;67214;47.454;18.966;2023-03-24T09:27:43;99758.64;;;17.62;44.01
77572;BME280;67214;47.454;18.966;2023-03-24T09:30:13;99743.06;;;17.85;44.25
77572;BME280;67214;47.454;18.966;2023-03-24T09:32:42;99748.42;;;18.03;45.14
77572;BME280;67214;47.454;18.966;2023-03-24T09:35:10;99744.17;;;18.28;43.42
77572;BME280;67214;47.454;18.966;2023-03-24T09:37:38;99745.13;;;18.49;43.68
77572;BME280;67214;47.454;18.966;2023-03-24T09:40:06;99740.07;;;18.69;42.97
77572;BME280;67214;47.454;18.966;2023-03-24T09:42:42;99739.61;;;18.66;43.05
77572;BME280;67214;47.454;18.966;2023-03-24T09:45:14;99733.14;;;18.71;43.17
77572;BME280;67214;47.454;18.966;2023-03-24T09:47:49;99731.73;;;18.79;42.51
77572;BME280;67214;47.454;18.966;2023-03-24T09:50:27;99729.59;;;18.99;43.38
77572;BME280;67214;47.454;18.966;2023-03-24T09:52:58;99716.75;;;19.31;42.21
77572;BME280;67214;47.454;18.966;2023-03-24T09:55:27;99712.44;;;19.62;42.43
77572;BME280;67214;47.454;18.966;2023-03-24T09:58:01;99707.27;;;19.60;41.49
77572;BME280;67214;47.454;18.966;2023-03-24T10:00:30;99705.33;;;19.75;41.58
77572;BME280;67214;47.454;18.966;2023-03-24T10:03:01;99705.60;;;19.98;41.77
77572;BME280;67214;47.454;18.966;2023-03-24T10:05:42;99699.48;;;20.21;41.28
77572;BME280;67214;47.454;18.966;2023-03-24T10:08:32;99709.47;;;20.37;39.70
77572;BME280;67214;47.454;18.966;2023-03-24T10:16:36;99689.45;;;20.94;38.99
77572;BME280;67214;47.454;18.966;2023-03-24T10:27:39;99659.50;;;21.37;38.17
77572;BME280;67214;47.454;18.966;2023-03-24T10:30:27;99662.73;;;21.49;38.63
77572;BME280;67214;47.454;18.966;2023-03-24T10:32:52;99660.88;;;21.43;37.05
77572;BME280;67214;47.454;18.966;2023-03-24T10:35:30;99651.13;;;21.82;37.45
77572;BME280;67214;47.454;18.966;2023-03-24T10:37:55;99644.69;;;21.50;36.52
77572;BME280;67214;47.454;18.966;2023-03-24T10:40:30;99656.08;;;21.02;38.07
77572;BME280;67214;47.454;18.966;2023-03-24T10:42:54;99654.92;;;21.00;37.58
77572;BME280;67214;47.454;18.966;2023-03-24T10:45:31;99658.47;;;21.44;37.87
77572;BME280;67214;47.454;18.966;2023-03-24T10:48:00;99655.27;;;21.58;37.67
77572;BME280;67214;47.454;18.966;2023-03-24T10:50:30;99645.27;;;21.32;37.41
77572;BME280;67214;47.454;18.966;2023-03-24T10:52:58;99642.80;;;21.30;37.16
77572;BME280;67214;47.454;18.966;2023-03-24T10:55:34;99649.27;;;21.62;37.27
77572;BME280;67214;47.454;18.966;2023-03-24T10:58:00;99651.13;;;21.55;36.52
77572;BME280;67214;47.454;18.966;2023-03-24T11:00:29;99649.38;;;21.52;36.85
77572;BME280;67214;47.454;18.966;2023-03-24T11:03:05;99644.27;;;21.72;35.88
77572;BME280;67214;47.454;18.966;2023-03-24T11:05:35;99647.19;;;21.97;36.16
77572;BME280;67214;47.454;18.966;2023-03-24T11:08:36;99617.38;;;21.49;36.18
77572;BME280;67214;47.454;18.966;2023-03-24T11:11:30;99628.91;;;21.93;36.72
77572;BME280;67214;47.454;18.966;2023-03-24T11:14:00;99612.18;;;22.42;35.35
77572;BME280;67214;47.454;18.966;2023-03-24T11:16:35;99606.92;;;22.60;34.78
77572;BME280;67214;47.454;18.966;2023-03-24T11:19:05;99609.95;;;22.54;34.47
77572;BME280;67214;47.454;18.966;2023-03-24T11:21:37;99609.82;;;22.65;34.63
77572;BME280;67214;47.454;18.966;2023-03-24T11:24:12;99590.67;;;22.44;34.13
77572;BME280;67214;47.454;18.966;2023-03-24T11:26:55;99601.72;;;22.30;34.25
77572;BME280;67214;47.454;18.966;2023-03-24T11:29:25;99586.02;;;22.36;34.59
77572;BME280;67214;47.454;18.966;2023-03-24T11:31:57;99602.84;;;22.44;34.95
77572;BME280;67214;47.454;18.966;2023-03-24T11:34:31;99594.73;;;22.38;34.84
77572;BME280;67214;47.454;18.966;2023-03-24T11:37:12;99586.22;;;22.41;34.55
77572;BME280;67214;47.454;18.966;2023-03-24T11:39:41;99578.47;;;22.51;34.12
77572;BME280;67214;47.454;18.966;2023-03-24T11:44:44;99554.89;;;22.93;34.09
77572;BME280;67214;47.454;18.966;2023-03-24T11:47:18;99551.28;;;23.71;33.67
77572;BME280;67214;47.454;18.966;2023-03-24T11:50:34;99544.69;;;24.03;32.92
77572;BME280;67214;47.454;18.966;2023-03-24T11:52:28;99548.59;;;23.98;31.76
77572;BME280;67214;47.454;18.966;2023-03-24T11:54:56;99553.17;;;23.30;31.79
77572;BME280;67214;47.454;18.966;2023-03-24T11:57:44;99551.95;;;23.26;32.27
77572;BME280;67214;47.454;18.966;2023-03-24T12:05:35;99539.17;;;24.01;31.61
77572;BME280;67214;47.454;18.966;2023-03-24T12:10:43;99532.02;;;23.05;31.79
77572;BME280;67214;47.454;18.966;2023-03-24T12:44:35;99477.81;;;23.18;31.94
77572;BME280;67214;47.454;18.966;2023-03-24T12:47:15;99484.41;;;23.72;31.51
77572;BME280;67214;47.454;18.966;2023-03-24T12:52:49;99461.98;;;24.19;30.90
77572;BME280;67214;47.454;18.966;2023-03-24T12:58:20;99460.55;;;24.46;31.17
77572;BME280;67214;47.454;18.966;2023-03-24T13:03:42;99460.19;;;24.43;30.11
77572;BME280;67214;47.454;18.966;2023-03-24T13:06:18;99459.95;;;23.87;30.25
77572;BME280;67214;47.454;18.966;2023-03-24T13:08:48;99466.19;;;23.70;30.31
77572;BME280;67214;47.454;18.966;2023-03-24T13:11:15;99450.19;;;24.64;30.21
77572;BME280;67214;47.454;18.966;2023-03-24T13:13:44;99453.52;;;25.31;29.26
77572;BME280;67214;47.454;18.966;2023-03-24T13:16:20;99441.98;;;26.53;27.98
77572;BME280;67214;47.454;18.966;2023-03-24T13:18:50;99439.66;;;26.45;26.69
77572;BME280;67214;47.454;18.966;2023-03-24T13:21:20;99439.66;;;26.45;26.69
77572;BME280;67214;47.454;18.966;2023-03-24T13:24:05;99440.88;;;26.23;28.36
77572;BME280;67214;47.454;18.966;2023-03-24T13:26:39;99427.80;;;26.81;27.23
77572;BME280;67214;47.454;18.966;2023-03-24T13:32:13;99417.05;;;28.02;26.46
77572;BME280;67214;47.454;18.966;2023-03-24T13:37:49;99410.39;;;25.69;28.44
77572;BME280;67214;47.454;18.966;2023-03-24T13:40:22;99410.39;;;25.69;28.44
77572;BME280;67214;47.454;18.966;2023-03-24T13:42:55;99424.28;;;24.80;29.45
77572;BME280;67214;47.454;18.966;2023-03-24T13:45:44;99414.18;;;25.45;28.65
77572;BME280;67214;47.454;18.966;2023-03-24T13:50:59;99397.86;;;24.34;30.22
77572;BME280;67214;47.454;18.966;2023-03-24T13:53:37;99414.69;;;24.86;29.47
77572;BME280;67214;47.454;18.966;2023-03-24T13:56:07;99408.83;;;26.13;27.77
77572;BME280;67214;47.454;18.966;2023-03-24T14:01:31;99414.91;;;27.08;26.57
77572;BME280;67214;47.454;18.966;2023-03-24T14:04:20;99394.05;;;27.13;26.89
77572;BME280;67214;47.454;18.966;2023-03-24T14:09:23;99397.07;;;26.98;26.59
77572;BME280;67214;47.454;18.966;2023-03-24T14:14:33;99391.48;;;26.73;27.47
77572;BME280;67214;47.454;18.966;2023-03-24T14:17:12;99387.16;;;26.30;27.79
77572;BME280;67214;47.454;18.966;2023-03-24T14:22:32;99377.78;;;25.95;28.23
77572;BME280;67214;47.454;18.966;2023-03-24T14:25:17;99382.34;;;26.06;28.15
77572;BME280;67214;47.454;18.966;2023-03-24T14:27:39;99382.29;;;24.50;30.02
77572;BME280;67214;47.454;18.966;2023-03-24T14:30:26;99379.97;;;23.30;31.80
77572;BME280;67214;47.454;18.966;2023-03-24T14:32:57;99379.97;;;23.30;31.80
77572;BME280;67214;47.454;18.966;2023-03-24T14:35:42;99388.22;;;22.67;32.81
77572;BME280;67214;47.454;18.966;2023-03-24T14:38:24;99376.33;;;22.75;32.84
77572;BME280;67214;47.454;18.966;2023-03-24T14:40:56;99372.96;;;22.80;33.30
77572;BME280;67214;47.454;18.966;2023-03-24T14:43:27;99369.80;;;22.42;33.17
77572;BME280;67214;47.454;18.966;2023-03-24T14:54:31;99372.43;;;22.24;33.64
77572;BME280;67214;47.454;18.966;2023-03-24T14:56:58;99357.72;;;22.13;34.03
77572;BME280;67214;47.454;18.966;2023-03-24T14:59:38;99352.30;;;22.20;33.90
77572;BME280;67214;47.454;18.966;2023-03-24T15:05:16;99363.36;;;22.12;34.10
77572;BME280;67214;47.454;18.966;2023-03-24T15:08:12;99360.09;;;22.03;33.98
77572;BME280;67214;47.454;18.966;2023-03-24T15:10:58;99360.03;;;21.94;34.02
77572;BME280;67214;47.454;18.966;2023-03-24T15:13:44;99359.44;;;21.92;34.12
77572;BME280;67214;47.454;18.966;2023-03-24T15:18:52;99337.87;;;21.72;34.98
77572;BME280;67214;47.454;18.966;2023-03-24T15:23:55;99320.88;;;21.21;35.64
77572;BME280;67214;47.454;18.966;2023-03-24T15:26:26;99320.88;;;21.21;35.64
77572;BME280;67214;47.454;18.966;2023-03-24T15:28:59;99343.56;;;21.29;35.40
77572;BME280;67214;47.454;18.966;2023-03-24T15:31:27;99344.94;;;21.22;35.57
77572;BME280;67214;47.454;18.966;2023-03-24T15:34:21;99343.48;;;21.20;35.59
77572;BME280;67214;47.454;18.966;2023-03-24T15:36:34;99345.25;;;21.04;35.55
77572;BME280;67214;47.454;18.966;2023-03-24T15:39:14;99348.89;;;21.00;35.42
77572;BME280;67214;47.454;18.966;2023-03-24T15:41:32;99341.31;;;21.00;35.71
77572;BME280;67214;47.454;18.966;2023-03-24T15:44:00;99339.14;;;21.06;35.70